Terminal Aerodrome Forecast
Issued by NWS

Home | Current Version | Previous Version | Text Only | Print | Product List | Glossary On
Versions: 1 2 3 4 5 6 7 8 9 10 11 12 13 14 15
000
FTPQ31 PGUM 212330
TAFGUM
TAF

TAF
PGRO 212330Z 2200/2224 06015KT P6SM VCSH SCT012 SCT040
      TEMPO 2200/2201 4SM -SHRA SCT011 BKN030=

USA.gov is the U.S. government's official web portal to all federal, state and local government web resources and services.